Decoded Metar for LEVC (VALENCIA in SPAIN) (IATA:VLC) | Meteo·Mobile Aviation Weather
aviador You're here:

LEVC Decoded Metar

VALENCIA in SPAIN
Report Time2019-11-16 01:00:00
UTC Time2019-11-16 01:10:01
Flight Rules vfr VFR
Wind290° at 08 kt
W.Decomp.*RWY 30: 7.9 kt HW 1.3 kt LCW
Visibility9999 m
Phenomena:N/A
Clouds:N/A
Expected CloudBase > 2,000 ft AGL from Temp-Dew spread
CeilingNone
Temp07°C (ISA -8)
Dew Point02°C (71% RH)
AAT2.5°C
QNH1007 hPa
Density Alt-410 ft
Elevation203 ft
Report Wrong Elevation
Raw Report
METAR LEVC 160100Z 29008KT CAVOK 07/02 Q1007 NOSIG=

Extra information for LEVC:More info

Metar Taf Metar & Taf Last 4 Metars F.Rules Stats Wind Profile Meteogram Temp Stats Airport Information Weather charts Add Link Nearby VenuesMetar ALERT Operation Metar Decoded Social comments

Webcam Valencia